createdAt,value
2017-11-30T00:00:21.990Z,0
2017-11-30T00:01:31.816Z,0
2017-11-30T00:02:41.645Z,0
2017-11-30T00:03:51.527Z,0
2017-11-30T00:05:01.621Z,0
2017-11-30T00:06:11.713Z,0
2017-11-30T00:07:22.194Z,0
2017-11-30T00:08:32.285Z,0
2017-11-30T00:09:42.155Z,0
2017-11-30T00:10:51.709Z,0
2017-11-30T00:12:01.802Z,0
2017-11-30T00:13:11.891Z,0
2017-11-30T00:14:21.935Z,0
2017-11-30T00:15:31.804Z,0
2017-11-30T00:16:41.878Z,0
2017-11-30T00:17:51.709Z,0
2017-11-30T00:19:01.784Z,0
2017-11-30T00:20:11.875Z,0
2017-11-30T00:21:21.200Z,0
2017-11-30T00:22:31.304Z,0
2017-11-30T00:23:41.384Z,0
2017-11-30T00:24:51.219Z,0
2017-11-30T00:26:00.514Z,0
2017-11-30T00:27:10.410Z,0
2017-11-30T00:28:20.248Z,0
2017-11-30T00:29:30.365Z,0
2017-11-30T00:30:39.906Z,0
2017-11-30T00:31:49.974Z,0
2017-11-30T00:33:00.052Z,0
2017-11-30T00:34:10.167Z,0
2017-11-30T00:35:20.027Z,0
2017-11-30T00:36:30.097Z,0
2017-11-30T00:37:40.161Z,0
2017-11-30T00:38:50.027Z,0
2017-11-30T00:40:00.110Z,0
2017-11-30T00:41:10.171Z,0
2017-11-30T00:42:20.252Z,0
2017-11-30T00:43:30.363Z,0
2017-11-30T00:44:40.169Z,0
2017-11-30T00:45:50.229Z,0
2017-11-30T00:47:00.056Z,0
2017-11-30T00:48:09.860Z,0
2017-11-30T00:49:19.674Z,0
2017-11-30T00:50:29.826Z,0
2017-11-30T00:51:39.354Z,0
2017-11-30T00:52:48.885Z,0
2017-11-30T00:53:58.701Z,0
2017-11-30T00:55:08.773Z,0
2017-11-30T00:56:18.905Z,0
2017-11-30T00:57:28.718Z,0
2017-11-30T00:58:38.802Z,0
2017-11-30T00:59:48.892Z,0
2017-11-30T01:00:58.980Z,0
2017-11-30T01:02:08.803Z,0
2017-11-30T01:03:18.894Z,0
2017-11-30T01:04:28.970Z,0
2017-11-30T01:05:38.778Z,0
2017-11-30T01:06:48.614Z,0
2017-11-30T01:07:58.467Z,0
2017-11-30T01:09:08.541Z,0
2017-11-30T01:10:18.631Z,0
2017-11-30T01:11:28.442Z,0
2017-11-30T01:12:38.255Z,0
2017-11-30T01:13:48.401Z,0
2017-11-30T01:14:58.488Z,0
2017-11-30T01:16:08.291Z,0
2017-11-30T01:17:17.827Z,0
2017-11-30T01:18:27.908Z,0
2017-11-30T01:19:37.976Z,0
2017-11-30T01:20:47.785Z,0
2017-11-30T01:21:57.872Z,0
2017-11-30T01:23:07.965Z,0
2017-11-30T01:24:17.786Z,0
2017-11-30T01:25:28.429Z,0
2017-11-30T01:26:38.250Z,0
2017-11-30T01:27:48.048Z,0
2017-11-30T01:28:57.874Z,0
2017-11-30T01:30:07.957Z,0
2017-11-30T01:31:17.748Z,0
2017-11-30T01:32:27.560Z,0
2017-11-30T01:33:37.649Z,0
2017-11-30T01:34:47.201Z,0
2017-11-30T01:35:59.230Z,0
2017-11-30T01:37:09.062Z,0
2017-11-30T01:38:18.872Z,0
2017-11-30T01:39:28.968Z,0
2017-11-30T01:40:38.794Z,0
2017-11-30T01:41:48.872Z,0
2017-11-30T01:42:58.984Z,0
2017-11-30T01:44:08.780Z,0
2017-11-30T01:45:18.824Z,0
2017-11-30T01:46:28.929Z,0
2017-11-30T01:47:39.007Z,0
2017-11-30T01:48:49.134Z,0
2017-11-30T01:49:59.230Z,0
2017-11-30T01:51:09.387Z,0
2017-11-30T01:52:19.496Z,0
2017-11-30T01:53:29.566Z,0
2017-11-30T01:54:39.372Z,0
2017-11-30T01:55:49.453Z,0
2017-11-30T01:56:59.527Z,0
2017-11-30T01:58:09.717Z,0
2017-11-30T01:59:19.805Z,0
2017-11-30T02:00:29.653Z,0
2017-11-30T02:01:38.932Z,0
2017-11-30T02:02:48.480Z,0
2017-11-30T02:03:58.576Z,0
2017-11-30T02:05:08.397Z,0
2017-11-30T02:06:18.204Z,0
2017-11-30T02:07:28.001Z,0
2017-11-30T02:08:38.079Z,0
2017-11-30T02:09:48.149Z,0
2017-11-30T02:10:57.965Z,0
2017-11-30T02:12:07.828Z,0
2017-11-30T02:13:17.635Z,0
2017-11-30T02:14:27.471Z,0
2017-11-30T02:15:37.549Z,0
2017-11-30T02:16:47.346Z,0
2017-11-30T02:17:57.422Z,0
2017-11-30T02:19:07.229Z,0
2017-11-30T02:20:17.300Z,0
2017-11-30T02:21:27.104Z,0
2017-11-30T02:22:37.156Z,0
2017-11-30T02:23:46.758Z,0
2017-11-30T02:24:56.826Z,0
2017-11-30T02:26:06.899Z,0
2017-11-30T02:27:17.453Z,0
2017-11-30T02:28:27.275Z,0
2017-11-30T02:29:36.809Z,0
2017-11-30T02:30:46.902Z,0
2017-11-30T02:31:56.713Z,0
2017-11-30T02:33:06.779Z,0
2017-11-30T02:34:16.882Z,0
2017-11-30T02:35:27.007Z,0
2017-11-30T02:36:37.072Z,0
2017-11-30T02:37:46.891Z,0
2017-11-30T02:38:56.982Z,0
2017-11-30T02:40:07.074Z,0
2017-11-30T02:41:17.221Z,0
2017-11-30T02:42:27.033Z,0
2017-11-30T02:43:37.099Z,0
2017-11-30T02:44:46.894Z,0
2017-11-30T02:45:56.986Z,0
2017-11-30T02:47:06.832Z,0
2017-11-30T02:48:16.660Z,0
2017-11-30T02:49:26.489Z,0
2017-11-30T02:50:36.298Z,0
2017-11-30T02:51:46.116Z,0
2017-11-30T02:52:56.196Z,0
2017-11-30T02:54:06.140Z,0
2017-11-30T02:55:16.333Z,0
2017-11-30T02:56:25.883Z,0
2017-11-30T02:57:35.693Z,0
2017-11-30T02:58:45.759Z,0
2017-11-30T02:59:56.243Z,0
2017-11-30T03:01:06.322Z,0
2017-11-30T03:02:16.413Z,0
2017-11-30T03:34:24.157Z,0
2017-11-30T03:35:33.950Z,0
2017-11-30T03:36:44.010Z,0
2017-11-30T03:37:53.819Z,0
2017-11-30T03:39:03.933Z,0
2017-11-30T03:40:13.798Z,0
2017-11-30T03:41:23.887Z,0
2017-11-30T03:42:33.147Z,0
2017-11-30T03:43:43.226Z,0
2017-11-30T03:44:53.291Z,0
2017-11-30T03:46:03.418Z,0
2017-11-30T03:47:13.490Z,0
2017-11-30T03:48:23.604Z,0
2017-11-30T03:49:33.410Z,0
2017-11-30T03:50:43.481Z,0
2017-11-30T03:51:53.552Z,0
2017-11-30T03:53:03.365Z,0
2017-11-30T03:54:13.423Z,0
2017-11-30T03:55:23.221Z,0
2017-11-30T03:56:32.749Z,0
2017-11-30T03:57:42.818Z,0
2017-11-30T03:58:52.889Z,0
2017-11-30T04:00:02.695Z,0
2017-11-30T04:01:12.772Z,0
2017-11-30T04:02:22.588Z,0
2017-11-30T04:03:32.390Z,0
2017-11-30T04:04:42.199Z,0
2017-11-30T04:05:52.270Z,0
2017-11-30T04:07:02.346Z,0
2017-11-30T04:08:12.422Z,0
2017-11-30T04:09:22.277Z,0
2017-11-30T04:10:32.357Z,0
2017-11-30T04:11:42.425Z,0
2017-11-30T04:12:52.914Z,0
2017-11-30T04:14:03.045Z,0
2017-11-30T04:15:12.904Z,0
2017-11-30T04:16:22.733Z,0
2017-11-30T04:17:32.262Z,0
2017-11-30T04:18:42.349Z,0
2017-11-30T04:19:52.411Z,0
2017-11-30T04:21:01.953Z,0
2017-11-30T04:22:12.759Z,0
2017-11-30T04:23:22.832Z,0
2017-11-30T04:24:32.648Z,0
2017-11-30T04:25:42.720Z,0
2017-11-30T04:26:53.191Z,0
2017-11-30T04:28:02.997Z,0
2017-11-30T04:29:13.070Z,0
2017-11-30T04:30:23.151Z,0
2017-11-30T04:31:33.212Z,0
2017-11-30T04:32:43.096Z,0
2017-11-30T04:33:52.928Z,0
2017-11-30T04:35:02.739Z,0
2017-11-30T04:36:12.842Z,0
2017-11-30T04:37:22.399Z,0
2017-11-30T04:38:32.244Z,0
2017-11-30T04:39:42.050Z,0
2017-11-30T04:40:51.860Z,0
2017-11-30T04:42:01.922Z,0
2017-11-30T04:43:12.003Z,0
2017-11-30T04:44:21.813Z,0
2017-11-30T04:45:31.909Z,0
2017-11-30T04:46:41.732Z,0
2017-11-30T04:47:51.313Z,0
2017-11-30T04:49:01.128Z,0
2017-11-30T04:50:10.933Z,0
2017-11-30T04:51:21.010Z,0
2017-11-30T04:52:31.094Z,0
2017-11-30T04:53:40.649Z,0
2017-11-30T04:54:50.232Z,0
2017-11-30T04:56:00.089Z,0
2017-11-30T04:57:09.632Z,0
2017-11-30T04:58:21.293Z,0
2017-11-30T04:59:31.679Z,0
2017-11-30T05:00:41.751Z,0
2017-11-30T05:01:51.830Z,0
2017-11-30T05:03:01.655Z,0
2017-11-30T05:04:11.723Z,0
2017-11-30T05:05:22.988Z,0
2017-11-30T05:06:32.800Z,0
2017-11-30T05:07:42.599Z,0
2017-11-30T05:08:52.417Z,0
2017-11-30T05:10:02.489Z,0
2017-11-30T05:11:12.287Z,0
2017-11-30T05:12:22.111Z,0
2017-11-30T05:13:32.206Z,0
2017-11-30T05:14:42.301Z,0
2017-11-30T05:15:52.109Z,0
2017-11-30T05:17:02.268Z,0
2017-11-30T05:18:12.369Z,0
2017-11-30T05:19:22.214Z,0
2017-11-30T05:20:31.772Z,0
2017-11-30T05:21:41.864Z,0
2017-11-30T05:22:51.959Z,0
2017-11-30T05:24:01.497Z,0
2017-11-30T05:25:11.604Z,0
2017-11-30T05:26:20.901Z,0
2017-11-30T05:27:30.727Z,0
2017-11-30T05:28:40.801Z,0
2017-11-30T05:29:50.880Z,0
2017-11-30T05:31:00.737Z,0
2017-11-30T05:32:10.813Z,0
2017-11-30T05:33:20.919Z,0
2017-11-30T05:34:30.998Z,0
2017-11-30T05:35:41.065Z,0
2017-11-30T05:36:50.608Z,0
2017-11-30T05:38:00.152Z,0
2017-11-30T05:39:10.236Z,0
2017-11-30T05:40:20.371Z,0
2017-11-30T05:41:30.445Z,0
2017-11-30T05:42:40.275Z,0
2017-11-30T05:43:50.416Z,0
2017-11-30T05:45:00.490Z,0
2017-11-30T05:46:10.301Z,0
2017-11-30T05:47:20.385Z,0
2017-11-30T05:48:30.502Z,0
2017-11-30T05:49:40.047Z,0
2017-11-30T05:50:49.867Z,0
2017-11-30T05:51:59.955Z,0
2017-11-30T05:53:09.795Z,0
2017-11-30T05:54:19.633Z,0
2017-11-30T05:55:29.434Z,0
2017-11-30T05:56:39.243Z,0
2017-11-30T05:57:49.319Z,0
2017-11-30T05:58:59.128Z,0
2017-11-30T06:00:09.233Z,0
2017-11-30T06:01:19.033Z,0
2017-11-30T06:02:28.835Z,0
2017-11-30T06:03:38.648Z,0
2017-11-30T06:04:48.718Z,0
2017-11-30T06:05:58.054Z,0
2017-11-30T06:07:07.863Z,0
2017-11-30T06:08:17.694Z,0
2017-11-30T06:09:27.503Z,0
2017-11-30T06:10:37.612Z,0
2017-11-30T06:11:47.488Z,0
2017-11-30T06:12:57.586Z,0
2017-11-30T06:14:07.131Z,0
2017-11-30T06:15:16.935Z,0
2017-11-30T06:16:27.061Z,0
2017-11-30T06:17:36.861Z,0
2017-11-30T06:18:46.949Z,0
2017-11-30T06:19:57.030Z,0
2017-11-30T06:21:06.824Z,0
2017-11-30T06:22:16.929Z,0
2017-11-30T06:23:26.768Z,0
2017-11-30T06:24:38.138Z,0
2017-11-30T06:25:48.643Z,0
2017-11-30T06:26:58.728Z,0
2017-11-30T06:28:08.798Z,0
2017-11-30T06:29:18.341Z,0
2017-11-30T06:30:28.416Z,0
2017-11-30T06:31:38.496Z,0
2017-11-30T06:32:48.309Z,0
2017-11-30T06:33:58.119Z,5
2017-11-30T06:35:07.679Z,5
2017-11-30T06:36:17.229Z,5
2017-11-30T06:37:27.035Z,5
2017-11-30T06:38:37.129Z,5
2017-11-30T06:39:46.946Z,5
2017-11-30T06:40:57.304Z,10
2017-11-30T06:42:07.101Z,10
2017-11-30T06:43:17.201Z,10
2017-11-30T06:44:27.006Z,10
2017-11-30T06:45:36.300Z,10
2017-11-30T06:46:45.857Z,10
2017-11-30T06:47:55.690Z,10
2017-11-30T06:49:05.736Z,15
2017-11-30T06:50:15.810Z,15
2017-11-30T06:51:25.622Z,20
2017-11-30T06:52:35.755Z,20
2017-11-30T06:53:45.552Z,15
2017-11-30T06:54:55.369Z,15
2017-11-30T06:56:05.470Z,20
2017-11-30T06:57:15.273Z,20
2017-11-30T06:58:25.407Z,25
2017-11-30T06:59:35.477Z,35
2017-11-30T07:00:45.302Z,35
2017-11-30T07:01:55.388Z,35
2017-11-30T07:03:05.591Z,40
2017-11-30T07:04:15.156Z,40
2017-11-30T07:05:24.986Z,40
2017-11-30T07:06:35.043Z,40
2017-11-30T07:07:44.856Z,40
2017-11-30T07:08:54.404Z,40
2017-11-30T07:10:04.532Z,40
2017-11-30T07:11:14.350Z,35
2017-11-30T07:12:24.166Z,35
2017-11-30T07:13:34.271Z,35
2017-11-30T07:14:44.356Z,40
2017-11-30T07:15:54.161Z,40
2017-11-30T07:17:04.242Z,40
2017-11-30T07:18:14.057Z,35
2017-11-30T07:19:24.125Z,30
2017-11-30T07:20:33.686Z,30
2017-11-30T07:21:43.773Z,25
2017-11-30T07:22:53.855Z,25
2017-11-30T07:24:03.668Z,25
2017-11-30T07:25:13.508Z,25
2017-11-30T07:26:23.592Z,25
2017-11-30T07:27:33.719Z,25
2017-11-30T07:28:43.809Z,30
2017-11-30T07:29:53.910Z,30
2017-11-30T07:31:03.732Z,30
2017-11-30T07:32:13.815Z,30
2017-11-30T07:33:23.626Z,30
2017-11-30T07:34:33.447Z,30
2017-11-30T07:35:43.530Z,30
2017-11-30T07:36:53.603Z,30
2017-11-30T07:38:03.439Z,30
2017-11-30T07:39:12.990Z,30
2017-11-30T07:40:23.084Z,30
2017-11-30T07:41:32.901Z,30
2017-11-30T07:42:42.446Z,30
2017-11-30T07:43:52.507Z,30
2017-11-30T07:45:02.631Z,35
2017-11-30T07:46:13.436Z,35
2017-11-30T07:47:23.244Z,35
2017-11-30T07:48:33.045Z,35
2017-11-30T07:49:43.140Z,40
2017-11-30T07:50:52.964Z,40
2017-11-30T07:52:02.792Z,40
2017-11-30T07:53:12.866Z,40
2017-11-30T07:54:22.942Z,40
2017-11-30T07:55:32.759Z,40
2017-11-30T07:56:42.914Z,40
2017-11-30T07:57:52.743Z,40
2017-11-30T07:59:02.814Z,45
2017-11-30T08:00:12.892Z,45
2017-11-30T08:01:22.706Z,45
2017-11-30T08:02:32.775Z,45
2017-11-30T08:03:42.847Z,45
2017-11-30T08:04:52.426Z,45
2017-11-30T08:06:02.498Z,45
2017-11-30T08:07:12.577Z,50
2017-11-30T08:08:22.388Z,50
2017-11-30T08:09:32.265Z,50
2017-11-30T08:10:41.812Z,50
2017-11-30T08:11:51.896Z,50
2017-11-30T08:13:01.716Z,50
2017-11-30T08:14:11.298Z,50
2017-11-30T08:15:21.383Z,50
2017-11-30T08:16:31.197Z,50
2017-11-30T08:17:41.268Z,50
2017-11-30T08:18:51.348Z,50
2017-11-30T08:20:00.954Z,50
2017-11-30T08:21:11.028Z,50
2017-11-30T08:22:20.559Z,50
2017-11-30T08:23:30.374Z,50
2017-11-30T08:24:40.214Z,50
2017-11-30T08:25:50.300Z,50
2017-11-30T08:26:59.829Z,55
2017-11-30T08:28:09.647Z,55
2017-11-30T08:29:19.749Z,55
2017-11-30T08:30:29.819Z,55
2017-11-30T08:31:39.630Z,60
2017-11-30T08:32:49.696Z,60
2017-11-30T08:33:59.861Z,60
2017-11-30T08:35:09.931Z,60
2017-11-30T08:36:19.190Z,65
2017-11-30T08:37:29.318Z,70
2017-11-30T08:38:39.111Z,70
2017-11-30T08:39:49.193Z,70
2017-11-30T08:40:59.004Z,75
2017-11-30T08:42:09.077Z,75
2017-11-30T08:43:19.202Z,75
2017-11-30T08:44:28.730Z,75
2017-11-30T08:45:38.543Z,75
2017-11-30T08:46:48.342Z,75
2017-11-30T08:47:58.173Z,80
2017-11-30T08:49:08.027Z,80
2017-11-30T08:50:17.853Z,80
2017-11-30T08:51:27.924Z,80
2017-11-30T08:52:38.048Z,85
2017-11-30T08:53:48.122Z,85
2017-11-30T08:54:58.270Z,85
2017-11-30T08:56:08.385Z,85
2017-11-30T08:57:18.194Z,90
2017-11-30T08:58:28.298Z,100
2017-11-30T08:59:38.108Z,100
2017-11-30T09:00:48.184Z,110
2017-11-30T09:01:58.003Z,110
2017-11-30T09:03:08.075Z,110
2017-11-30T09:04:18.159Z,115
2017-11-30T09:05:28.234Z,115
2017-11-30T09:06:38.053Z,120
2017-11-30T09:07:47.619Z,120
2017-11-30T09:08:57.421Z,120
2017-11-30T09:10:07.025Z,125
2017-11-30T09:11:16.828Z,130
2017-11-30T09:12:26.894Z,135
2017-11-30T09:13:36.737Z,145
2017-11-30T09:14:46.551Z,155
2017-11-30T09:15:56.625Z,150
2017-11-30T09:17:06.181Z,150
2017-11-30T09:18:15.996Z,155
2017-11-30T09:19:25.812Z,155
2017-11-30T09:20:35.349Z,155
2017-11-30T09:21:44.680Z,150
2017-11-30T09:22:54.481Z,150
2017-11-30T09:24:04.338Z,150
2017-11-30T09:25:14.404Z,150
2017-11-30T09:26:24.491Z,145
2017-11-30T09:27:34.613Z,140
2017-11-30T09:28:44.478Z,130
2017-11-30T09:29:54.307Z,130
2017-11-30T09:31:04.125Z,130
2017-11-30T09:32:13.935Z,140
2017-11-30T09:33:24.003Z,130
2017-11-30T09:34:33.822Z,135
2017-11-30T09:35:43.630Z,135
2017-11-30T09:36:53.462Z,140
2017-11-30T09:38:03.273Z,140
2017-11-30T09:39:13.480Z,140
2017-11-30T09:40:23.014Z,135
2017-11-30T09:41:33.090Z,135
2017-11-30T09:42:42.636Z,140
2017-11-30T09:43:52.193Z,145
2017-11-30T09:45:02.005Z,145
2017-11-30T09:46:12.113Z,145
2017-11-30T09:47:21.657Z,140
2017-11-30T09:48:31.459Z,135
2017-11-30T09:49:41.564Z,135
2017-11-30T09:50:51.640Z,130
2017-11-30T09:52:01.444Z,135
2017-11-30T09:53:11.252Z,130
2017-11-30T09:54:21.348Z,130
2017-11-30T09:55:30.900Z,125
2017-11-30T09:56:40.278Z,125
2017-11-30T09:57:50.093Z,120
2017-11-30T09:59:00.187Z,125
2017-11-30T10:00:10.016Z,120
2017-11-30T10:01:19.561Z,120
2017-11-30T10:02:29.632Z,115
2017-11-30T10:03:39.715Z,115
2017-11-30T10:04:49.536Z,110
2017-11-30T10:05:59.649Z,115
2017-11-30T10:07:09.737Z,110
2017-11-30T10:08:19.598Z,110
2017-11-30T10:09:29.166Z,110
2017-11-30T10:10:38.712Z,110
2017-11-30T10:11:48.520Z,110
2017-11-30T10:12:58.085Z,110
2017-11-30T10:14:07.903Z,110
2017-11-30T10:15:18.000Z,110
2017-11-30T10:16:27.813Z,110
2017-11-30T10:17:37.630Z,110
2017-11-30T10:18:49.051Z,105
2017-11-30T10:19:59.387Z,105
2017-11-30T10:21:09.467Z,100
2017-11-30T10:22:19.274Z,100
2017-11-30T10:23:29.350Z,95
2017-11-30T10:24:39.434Z,95
2017-11-30T10:25:49.304Z,95
2017-11-30T10:26:59.396Z,95
2017-11-30T10:28:09.210Z,95
2017-11-30T10:29:19.049Z,95
2017-11-30T10:30:29.137Z,95
2017-11-30T10:31:39.340Z,90
2017-11-30T10:32:49.782Z,90
2017-11-30T10:34:00.722Z,90
2017-11-30T10:35:10.996Z,90
2017-11-30T10:36:21.275Z,90
2017-11-30T10:37:31.222Z,85
2017-11-30T10:38:41.124Z,85
2017-11-30T10:39:50.995Z,85
2017-11-30T10:41:00.541Z,80
2017-11-30T10:42:10.660Z,80
2017-11-30T10:43:20.757Z,80
2017-11-30T10:44:30.846Z,80
2017-11-30T10:45:40.914Z,80
2017-11-30T10:46:51.028Z,80
2017-11-30T10:48:01.088Z,80
2017-11-30T10:49:12.570Z,80
2017-11-30T10:50:22.639Z,75
2017-11-30T10:51:32.192Z,80
2017-11-30T10:52:43.365Z,80
2017-11-30T10:53:53.174Z,85
2017-11-30T10:55:02.723Z,85
2017-11-30T10:56:12.534Z,85
2017-11-30T10:57:22.417Z,85
2017-11-30T10:58:31.681Z,90
2017-11-30T10:59:41.533Z,90
2017-11-30T11:00:51.350Z,90
2017-11-30T11:02:01.193Z,95
2017-11-30T11:03:11.342Z,95
2017-11-30T11:04:20.899Z,100
2017-11-30T11:05:30.998Z,100
2017-11-30T11:06:41.123Z,105
2017-11-30T11:07:51.211Z,105
2017-11-30T11:09:02.289Z,105
2017-11-30T11:10:11.833Z,105
2017-11-30T11:11:21.674Z,100
2017-11-30T11:12:31.496Z,100
2017-11-30T11:13:41.585Z,100
2017-11-30T11:14:51.476Z,100
2017-11-30T11:16:01.312Z,95
2017-11-30T11:17:11.426Z,95
2017-11-30T11:18:21.236Z,90
2017-11-30T11:19:31.446Z,90
2017-11-30T11:20:41.579Z,90
2017-11-30T11:21:51.647Z,90
2017-11-30T11:23:01.482Z,90
2017-11-30T11:24:12.407Z,90
2017-11-30T11:25:22.614Z,90
2017-11-30T11:26:32.756Z,95
2017-11-30T11:27:42.829Z,90
2017-11-30T11:28:52.641Z,90
2017-11-30T11:30:02.752Z,90
2017-11-30T11:31:12.312Z,90
2017-11-30T11:32:22.179Z,80
2017-11-30T11:33:32.004Z,80
2017-11-30T11:34:41.816Z,80
2017-11-30T11:35:51.631Z,75
2017-11-30T11:37:01.476Z,70
2017-11-30T11:38:11.601Z,70
2017-11-30T11:39:21.693Z,70
2017-11-30T11:40:31.505Z,65
2017-11-30T11:41:41.321Z,65
2017-11-30T11:42:51.139Z,70
2017-11-30T11:44:01.010Z,70
2017-11-30T11:45:11.089Z,70
2017-11-30T11:46:20.644Z,70
2017-11-30T11:47:30.465Z,70
2017-11-30T11:48:40.550Z,70
2017-11-30T11:49:50.660Z,70
2017-11-30T11:51:00.751Z,80
2017-11-30T11:52:11.694Z,80
2017-11-30T11:53:21.226Z,85
2017-11-30T11:54:31.050Z,90
2017-11-30T11:55:41.147Z,90
2017-11-30T11:56:51.232Z,95
2017-11-30T11:58:00.800Z,95
2017-11-30T11:59:10.883Z,100
2017-11-30T12:00:20.438Z,100
2017-11-30T12:01:30.369Z,100
2017-11-30T12:02:40.483Z,100
2017-11-30T12:03:50.565Z,105
2017-11-30T12:05:00.684Z,105
2017-11-30T12:06:10.808Z,105
2017-11-30T12:07:20.725Z,105
2017-11-30T12:08:30.277Z,110
2017-11-30T12:09:40.082Z,110
2017-11-30T12:10:50.178Z,105
2017-11-30T12:12:00.244Z,100
2017-11-30T12:13:10.213Z,100
2017-11-30T12:14:20.029Z,95
2017-11-30T12:15:30.121Z,95
2017-11-30T12:16:39.683Z,95
2017-11-30T12:17:49.257Z,90
2017-11-30T12:18:58.865Z,85
2017-11-30T12:20:08.981Z,85
2017-11-30T12:21:19.427Z,80
2017-11-30T12:22:29.253Z,80
2017-11-30T12:23:39.354Z,75
2017-11-30T12:24:48.975Z,70
2017-11-30T12:25:59.067Z,70
2017-11-30T12:27:09.153Z,60
2017-11-30T12:28:18.971Z,55
2017-11-30T12:29:29.070Z,55
2017-11-30T12:30:38.907Z,55
2017-11-30T12:31:49.027Z,50
2017-11-30T12:32:58.858Z,55
2017-11-30T12:34:08.689Z,50
2017-11-30T12:35:18.254Z,45
2017-11-30T12:36:28.122Z,45
2017-11-30T12:37:37.943Z,50
2017-11-30T12:38:47.490Z,45
2017-11-30T12:39:57.593Z,40
2017-11-30T12:41:07.696Z,35
2017-11-30T12:42:17.562Z,35
2017-11-30T12:43:27.368Z,35
2017-11-30T12:44:37.198Z,40
2017-11-30T12:45:47.305Z,40
2017-11-30T12:46:57.132Z,40
2017-11-30T12:48:06.729Z,40
2017-11-30T12:49:16.542Z,45
2017-11-30T12:50:26.723Z,45
2017-11-30T12:51:36.530Z,45
2017-11-30T12:52:46.341Z,45
2017-11-30T12:53:55.968Z,45
2017-11-30T12:55:05.770Z,50
2017-11-30T12:56:15.588Z,50
2017-11-30T12:57:25.433Z,45
2017-11-30T12:58:35.500Z,50
2017-11-30T12:59:44.833Z,50
2017-11-30T13:00:54.399Z,50
2017-11-30T13:02:04.215Z,50
2017-11-30T13:03:14.291Z,45
2017-11-30T13:04:23.877Z,50
2017-11-30T13:05:33.706Z,45
2017-11-30T13:06:43.779Z,45
2017-11-30T13:07:53.826Z,35
2017-11-30T13:09:03.611Z,40
2017-11-30T13:10:13.698Z,35
2017-11-30T13:11:23.888Z,35
2017-11-30T13:12:33.960Z,35
2017-11-30T13:13:43.512Z,35
2017-11-30T13:14:53.607Z,35
2017-11-30T13:16:03.667Z,35
2017-11-30T13:17:13.841Z,35
2017-11-30T13:18:23.904Z,35
2017-11-30T13:19:33.699Z,35
2017-11-30T13:20:43.765Z,40
2017-11-30T13:21:53.818Z,40
2017-11-30T13:23:04.354Z,40
2017-11-30T13:24:14.414Z,45
2017-11-30T13:25:25.674Z,45
2017-11-30T13:26:35.470Z,45
2017-11-30T13:27:45.277Z,45
2017-11-30T13:28:55.399Z,50
2017-11-30T13:30:04.933Z,50
2017-11-30T13:31:14.761Z,55
2017-11-30T13:32:24.821Z,60
2017-11-30T13:33:34.643Z,60
2017-11-30T13:34:44.254Z,60
2017-11-30T13:35:53.850Z,60
2017-11-30T13:37:03.914Z,65
2017-11-30T13:38:13.755Z,65
2017-11-30T13:39:23.838Z,60
2017-11-30T13:40:34.054Z,65
2017-11-30T13:41:44.123Z,65
2017-11-30T13:42:53.923Z,65
2017-11-30T13:44:03.987Z,65
2017-11-30T13:45:14.073Z,65
2017-11-30T13:46:24.185Z,60
2017-11-30T13:47:34.238Z,60
2017-11-30T13:48:43.823Z,55
2017-11-30T13:49:53.863Z,55
2017-11-30T13:51:03.928Z,45
2017-11-30T13:52:13.793Z,45
2017-11-30T13:53:23.593Z,40
2017-11-30T13:54:33.661Z,40
2017-11-30T13:55:43.484Z,40
2017-11-30T13:56:53.553Z,40
2017-11-30T13:58:03.688Z,35
2017-11-30T13:59:13.740Z,35
2017-11-30T14:00:23.822Z,30
2017-11-30T14:01:33.632Z,30
2017-11-30T14:02:43.943Z,25
2017-11-30T14:03:54.150Z,25
2017-11-30T14:05:04.221Z,25
2017-11-30T14:06:14.282Z,25
2017-11-30T14:07:24.327Z,25
2017-11-30T14:08:33.893Z,20
2017-11-30T14:09:44.806Z,20
2017-11-30T14:10:54.599Z,20
2017-11-30T14:12:04.655Z,15
2017-11-30T14:13:14.751Z,15
2017-11-30T14:14:24.277Z,15
2017-11-30T14:15:33.555Z,15
2017-11-30T14:16:43.382Z,10
2017-11-30T14:17:53.445Z,10
2017-11-30T14:19:03.484Z,10
2017-11-30T14:20:13.021Z,10
2017-11-30T14:21:23.086Z,10
2017-11-30T14:22:33.142Z,10
2017-11-30T14:23:43.220Z,10
2017-11-30T14:24:53.073Z,15
2017-11-30T14:26:02.883Z,15
2017-11-30T14:27:12.682Z,10
2017-11-30T14:28:22.736Z,10
2017-11-30T14:29:32.565Z,10
2017-11-30T14:30:42.615Z,5
2017-11-30T14:31:52.420Z,5
2017-11-30T14:33:02.943Z,5
2017-11-30T14:34:12.765Z,5
2017-11-30T14:35:22.559Z,5
2017-11-30T14:36:32.421Z,5
2017-11-30T14:37:42.534Z,5
2017-11-30T14:38:52.603Z,5
2017-11-30T14:40:02.658Z,5
2017-11-30T14:41:12.762Z,5
2017-11-30T14:42:22.591Z,0
2017-11-30T14:43:32.648Z,0
2017-11-30T14:44:42.775Z,0
2017-11-30T14:45:52.578Z,0
2017-11-30T14:47:02.362Z,0
2017-11-30T14:48:12.204Z,0
2017-11-30T14:49:22.259Z,0
2017-11-30T14:50:31.543Z,0
2017-11-30T14:51:41.639Z,0
2017-11-30T14:52:51.188Z,0
2017-11-30T14:54:01.304Z,0
2017-11-30T14:55:11.359Z,0
2017-11-30T14:56:20.642Z,0
2017-11-30T14:57:30.165Z,0
2017-11-30T14:58:40.236Z,0
2017-11-30T14:59:49.841Z,0
2017-11-30T15:00:59.642Z,0
2017-11-30T15:02:09.708Z,0
2017-11-30T15:03:19.233Z,0
2017-11-30T15:04:29.392Z,0
2017-11-30T15:05:39.265Z,0
2017-11-30T15:06:49.346Z,0
2017-11-30T15:07:59.433Z,0
2017-11-30T15:09:09.489Z,0
2017-11-30T15:10:19.551Z,0
2017-11-30T15:11:29.061Z,0
2017-11-30T15:12:38.856Z,0
2017-11-30T15:13:48.909Z,0
2017-11-30T15:14:58.975Z,0
2017-11-30T15:16:09.040Z,0
2017-11-30T15:17:18.671Z,0
2017-11-30T15:18:28.732Z,0
2017-11-30T15:19:38.528Z,0
2017-11-30T15:20:48.606Z,0
2017-11-30T15:21:58.444Z,0
2017-11-30T15:23:08.115Z,0
2017-11-30T15:24:17.643Z,0
2017-11-30T15:25:27.722Z,0
2017-11-30T15:26:37.771Z,0
2017-11-30T15:27:47.828Z,0
2017-11-30T15:28:57.939Z,0
2017-11-30T15:30:08.020Z,0
2017-11-30T15:31:17.810Z,0
2017-11-30T15:32:27.900Z,0
2017-11-30T15:33:37.763Z,0
2017-11-30T15:34:47.632Z,0
2017-11-30T15:35:57.430Z,0
2017-11-30T15:37:07.539Z,0
2017-11-30T15:38:17.599Z,0
2017-11-30T15:39:26.631Z,0
2017-11-30T15:40:36.695Z,0
2017-11-30T15:41:46.711Z,0
2017-11-30T15:42:56.792Z,0
2017-11-30T15:44:06.685Z,0
2017-11-30T15:45:16.327Z,0
2017-11-30T15:46:26.115Z,0
2017-11-30T15:47:36.242Z,0
2017-11-30T15:48:46.395Z,0
2017-11-30T15:49:56.214Z,0
2017-11-30T15:51:06.313Z,0
2017-11-30T15:52:16.453Z,0
2017-11-30T15:53:26.864Z,0
2017-11-30T15:54:36.701Z,0
2017-11-30T15:55:46.801Z,0
2017-11-30T15:56:56.891Z,0
2017-11-30T15:58:06.992Z,0
2017-11-30T15:59:17.106Z,0
2017-11-30T16:00:26.913Z,0
2017-11-30T16:01:36.737Z,0
2017-11-30T16:02:46.800Z,0
2017-11-30T16:03:56.623Z,0
2017-11-30T16:05:06.688Z,0
2017-11-30T16:06:16.765Z,0
2017-11-30T16:07:26.576Z,0
2017-11-30T16:08:36.689Z,0
2017-11-30T16:09:46.768Z,0
2017-11-30T16:10:56.973Z,0
2017-11-30T16:12:06.784Z,0
2017-11-30T16:13:17.549Z,0
2017-11-30T16:14:27.863Z,0
2017-11-30T16:15:37.963Z,0
2017-11-30T16:16:48.087Z,0
2017-11-30T16:17:57.895Z,0
2017-11-30T16:19:07.954Z,0
2017-11-30T16:20:18.000Z,0
2017-11-30T16:21:28.062Z,0
2017-11-30T16:22:38.199Z,0
2017-11-30T16:23:48.270Z,0
2017-11-30T16:24:58.318Z,0
2017-11-30T16:26:08.386Z,0
2017-11-30T16:27:18.442Z,0
2017-11-30T16:28:28.236Z,0
2017-11-30T16:29:38.283Z,0
2017-11-30T16:30:48.087Z,0
2017-11-30T16:31:58.161Z,0
2017-11-30T16:33:08.243Z,0
2017-11-30T16:34:18.109Z,0
2017-11-30T16:35:27.934Z,0
2017-11-30T16:36:37.989Z,0
2017-11-30T16:37:47.801Z,0
2017-11-30T16:38:57.654Z,0
2017-11-30T16:40:07.750Z,0
2017-11-30T16:41:17.557Z,0
2017-11-30T16:42:27.655Z,0
2017-11-30T16:43:37.737Z,0
2017-11-30T16:44:47.947Z,0
2017-11-30T16:45:58.056Z,0
2017-11-30T16:47:07.596Z,0
2017-11-30T16:48:17.423Z,0
2017-11-30T16:49:27.220Z,0
2017-11-30T16:50:37.300Z,0
2017-11-30T16:51:47.470Z,0
2017-11-30T16:52:57.554Z,0
2017-11-30T16:54:07.629Z,0
2017-11-30T16:55:17.178Z,0
2017-11-30T16:56:27.309Z,0
2017-11-30T16:57:37.684Z,0
2017-11-30T16:58:47.792Z,0
2017-11-30T16:59:57.872Z,0
2017-11-30T17:01:07.680Z,0
2017-11-30T17:02:17.487Z,0
2017-11-30T17:03:27.792Z,0
2017-11-30T17:04:37.618Z,0
2017-11-30T17:05:47.428Z,0
2017-11-30T17:06:57.498Z,0
2017-11-30T17:08:07.572Z,0
2017-11-30T17:09:17.419Z,0
2017-11-30T17:10:27.482Z,0
2017-11-30T17:11:37.646Z,0
2017-11-30T17:12:47.697Z,0
2017-11-30T17:13:57.501Z,0
2017-11-30T17:15:07.610Z,0
2017-11-30T17:16:17.700Z,0
2017-11-30T17:17:27.538Z,0
2017-11-30T17:18:37.078Z,0
2017-11-30T17:19:47.155Z,0
2017-11-30T17:20:57.005Z,0
2017-11-30T17:22:07.085Z,0
2017-11-30T17:23:17.160Z,0